createdAt,value
2022-12-11T00:02:37.503Z,1.60
2022-12-11T00:05:46.265Z,1.60
2022-12-11T00:08:56.690Z,1.60
2022-12-11T00:12:05.497Z,1.52
2022-12-11T00:15:14.445Z,1.50
2022-12-11T00:18:22.404Z,1.50
2022-12-11T00:21:30.214Z,1.46
2022-12-11T00:24:38.268Z,1.40
2022-12-11T00:27:48.402Z,1.40
2022-12-11T00:30:56.240Z,1.40
2022-12-11T00:34:05.456Z,1.30
2022-12-11T00:37:13.770Z,1.26
2022-12-11T00:40:21.609Z,1.20
2022-12-11T00:43:29.658Z,1.20
2022-12-11T00:46:37.599Z,1.18
2022-12-11T00:49:49.735Z,1.10
2022-12-11T00:52:58.472Z,1.10
2022-12-11T00:56:12.984Z,1.02
2022-12-11T00:59:20.693Z,1.00
2022-12-11T01:02:28.580Z,1.00
2022-12-11T01:05:37.767Z,0.92
2022-12-11T01:08:46.552Z,0.90
2022-12-11T01:11:55.449Z,0.90
2022-12-11T01:15:03.556Z,0.80
2022-12-11T01:18:12.360Z,0.80
2022-12-11T01:21:20.441Z,0.70
2022-12-11T01:24:28.159Z,0.70
2022-12-11T01:27:36.238Z,0.60
2022-12-11T01:30:46.335Z,0.60
2022-12-11T01:33:57.507Z,0.60
2022-12-11T01:37:05.213Z,0.60
2022-12-11T01:40:16.846Z,0.56
2022-12-11T01:43:24.648Z,0.50
2022-12-11T01:46:35.491Z,0.50
2022-12-11T01:49:44.700Z,0.42
2022-12-11T01:52:54.687Z,0.40
2022-12-11T01:56:04.529Z,0.40
2022-12-11T01:59:12.185Z,0.40
2022-12-11T02:02:27.083Z,0.40
2022-12-11T02:05:35.306Z,0.32
2022-12-11T02:08:43.094Z,0.30
2022-12-11T02:12:03.605Z,0.30
2022-12-11T02:15:21.787Z,0.30
2022-12-11T02:18:40.354Z,0.30
2022-12-11T02:21:56.110Z,0.26
2022-12-11T02:25:18.777Z,0.22
2022-12-11T02:28:34.922Z,0.20
2022-12-11T02:31:50.703Z,0.20
2022-12-11T02:35:06.258Z,0.20
2022-12-11T02:38:20.822Z,0.20
2022-12-11T02:41:31.154Z,0.20
2022-12-11T02:44:41.512Z,0.20
2022-12-11T02:47:52.805Z,0.20
2022-12-11T02:51:05.730Z,0.16
2022-12-11T02:54:20.925Z,0.16
2022-12-11T02:57:35.265Z,0.12
2022-12-11T03:00:43.327Z,0.14
2022-12-11T03:03:51.459Z,0.10
2022-12-11T03:07:12.288Z,0.10
2022-12-11T03:10:22.410Z,0.10
2022-12-11T03:13:30.236Z,0.10
2022-12-11T03:16:44.412Z,0.10
2022-12-11T03:20:06.225Z,0.10
2022-12-11T03:23:27.093Z,0.10
2022-12-11T03:26:43.417Z,0.06
2022-12-11T03:29:59.190Z,0.04
2022-12-11T03:33:15.008Z,0.00
2022-12-11T03:36:28.343Z,0.00
2022-12-11T03:39:42.799Z,0.00
2022-12-11T03:42:54.085Z,0.00
2022-12-11T03:46:04.110Z,0.00
2022-12-11T03:49:18.219Z,0.00
2022-12-11T03:52:29.161Z,0.00
2022-12-11T03:55:39.832Z,0.00
2022-12-11T03:58:47.617Z,-0.02
2022-12-11T04:01:56.307Z,-0.02
2022-12-11T04:05:04.968Z,-0.10
2022-12-11T04:08:13.277Z,-0.10
2022-12-11T04:11:36.823Z,-0.10
2022-12-11T04:15:13.667Z,-0.10
2022-12-11T04:18:38.789Z,-0.10
2022-12-11T04:22:04.273Z,-0.10
2022-12-11T04:25:12.733Z,-0.10
2022-12-11T04:28:20.902Z,-0.10
2022-12-11T04:31:30.125Z,-0.10
2022-12-11T04:34:37.993Z,-0.10
2022-12-11T04:37:46.333Z,-0.10
2022-12-11T04:41:00.821Z,-0.10
2022-12-11T04:44:08.828Z,-0.10
2022-12-11T04:47:16.632Z,-0.10
2022-12-11T04:50:24.632Z,-0.10
2022-12-11T04:53:33.802Z,-0.10
2022-12-11T04:56:41.615Z,-0.10
2022-12-11T04:59:49.416Z,-0.10
2022-12-11T05:02:57.363Z,-0.10
2022-12-11T05:06:05.847Z,-0.10
2022-12-11T05:09:16.822Z,-0.10
2022-12-11T05:12:24.783Z,-0.10
2022-12-11T05:15:32.689Z,-0.10
2022-12-11T05:18:40.777Z,-0.10
2022-12-11T05:35:37.358Z,0.30
2022-12-11T05:38:45.358Z,0.30
2022-12-11T05:41:53.210Z,0.20
2022-12-11T05:45:00.987Z,0.10
2022-12-11T05:48:09.440Z,0.10
2022-12-11T05:51:19.607Z,0.00
2022-12-11T05:54:27.601Z,0.00
2022-12-11T05:57:35.343Z,-0.06
2022-12-11T06:00:45.979Z,-0.10
2022-12-11T06:03:54.733Z,-0.10
2022-12-11T06:07:02.748Z,-0.10
2022-12-11T06:10:12.370Z,-0.10
2022-12-11T06:13:20.769Z,-0.10
2022-12-11T06:16:29.063Z,-0.16
2022-12-11T06:19:37.321Z,-0.18
2022-12-11T06:22:45.613Z,-0.20
2022-12-11T06:25:53.613Z,-0.20
2022-12-11T06:29:01.921Z,-0.20
2022-12-11T06:32:10.751Z,-0.20
2022-12-11T06:35:19.183Z,-0.20
2022-12-11T06:38:27.309Z,-0.20
2022-12-11T06:41:34.909Z,-0.20
2022-12-11T06:44:43.016Z,-0.20
2022-12-11T06:47:50.699Z,-0.18
2022-12-11T06:50:58.387Z,-0.18
2022-12-11T06:54:06.424Z,-0.18
2022-12-11T06:57:15.433Z,-0.12
2022-12-11T07:00:23.540Z,-0.10
2022-12-11T07:03:32.437Z,-0.10
2022-12-11T07:06:40.487Z,-0.10
2022-12-11T07:09:48.602Z,-0.10
2022-12-11T07:12:56.903Z,-0.10
2022-12-11T07:16:10.926Z,-0.10
2022-12-11T07:19:19.176Z,-0.10
2022-12-11T07:22:27.372Z,-0.08
2022-12-11T07:25:35.596Z,-0.06
2022-12-11T07:28:44.868Z,-0.02
2022-12-11T07:31:52.928Z,0.00
2022-12-11T07:35:00.858Z,0.00
2022-12-11T07:38:09.310Z,0.00
2022-12-11T07:41:19.278Z,0.00
2022-12-11T07:44:27.323Z,0.00
2022-12-11T07:47:36.358Z,0.02
2022-12-11T07:50:44.152Z,0.10
2022-12-11T07:53:53.581Z,0.10
2022-12-11T07:57:01.514Z,0.10
2022-12-11T08:00:12.102Z,0.10
2022-12-11T08:03:20.745Z,0.10
2022-12-11T08:06:33.204Z,0.10
2022-12-11T08:09:41.671Z,0.10
2022-12-11T08:12:49.499Z,0.10
2022-12-11T08:15:57.688Z,0.12
2022-12-11T08:19:05.607Z,0.14
2022-12-11T08:22:14.465Z,0.10
2022-12-11T08:25:22.512Z,0.18
2022-12-11T08:28:32.227Z,0.20
2022-12-11T08:31:40.090Z,0.20
2022-12-11T08:34:48.304Z,0.20
2022-12-11T08:37:56.265Z,0.20
2022-12-11T08:41:11.263Z,0.20
2022-12-11T08:44:20.063Z,0.20
2022-12-11T08:47:28.257Z,0.20
2022-12-11T08:50:36.087Z,0.28
2022-12-11T08:53:44.450Z,0.30
2022-12-11T08:56:57.708Z,0.30
2022-12-11T09:00:09.097Z,0.32
2022-12-11T09:03:17.260Z,0.38
2022-12-11T09:06:27.903Z,0.40
2022-12-11T09:09:36.203Z,0.40
2022-12-11T09:12:44.010Z,0.40
2022-12-11T09:15:51.850Z,0.40
2022-12-11T09:19:01.567Z,0.40
2022-12-11T09:22:11.463Z,0.40
2022-12-11T09:25:17.671Z,0.50
2022-12-11T09:28:26.127Z,0.50
2022-12-11T09:31:36.762Z,0.50
2022-12-11T09:34:44.562Z,0.50
2022-12-11T09:37:52.292Z,0.50
2022-12-11T09:41:00.883Z,0.50
2022-12-11T09:44:26.540Z,0.48
2022-12-11T09:47:42.588Z,0.40
2022-12-11T09:50:54.589Z,0.40
2022-12-11T09:54:06.055Z,0.40
2022-12-11T09:57:31.071Z,0.40
2022-12-11T10:00:47.112Z,0.40
2022-12-11T10:04:17.069Z,0.40
2022-12-11T10:07:40.211Z,0.40
2022-12-11T10:10:55.404Z,0.40
2022-12-11T10:14:14.932Z,0.40
2022-12-11T10:17:30.685Z,0.40
2022-12-11T10:20:42.897Z,0.40
2022-12-11T10:23:59.202Z,0.40
2022-12-11T10:27:21.476Z,0.40
2022-12-11T10:30:37.012Z,0.40
2022-12-11T10:34:00.797Z,0.40
2022-12-11T10:37:09.557Z,0.40
2022-12-11T10:40:18.441Z,0.40
2022-12-11T10:43:40.361Z,0.40
2022-12-11T10:46:48.939Z,0.40
2022-12-11T10:50:00.886Z,0.42
2022-12-11T10:53:21.341Z,0.44
2022-12-11T10:56:34.997Z,0.50
2022-12-11T10:59:49.135Z,0.52
2022-12-11T11:02:57.739Z,0.60
2022-12-11T11:06:18.664Z,0.60
2022-12-11T11:09:37.638Z,0.60
2022-12-11T11:12:48.295Z,0.70
2022-12-11T11:16:04.689Z,0.70
2022-12-11T11:19:22.274Z,0.70
2022-12-11T11:22:30.205Z,0.72
2022-12-11T11:25:38.453Z,0.70
2022-12-11T11:28:52.126Z,0.78
2022-12-11T11:32:03.784Z,0.80
2022-12-11T11:35:23.396Z,0.78
2022-12-11T11:38:36.492Z,0.72
2022-12-11T11:41:55.276Z,0.70
2022-12-11T11:45:14.014Z,0.72
2022-12-11T11:48:37.015Z,0.70
2022-12-11T11:51:53.642Z,0.80
2022-12-11T11:55:21.708Z,0.80
2022-12-11T11:58:39.709Z,0.90
2022-12-11T12:01:48.158Z,0.90
2022-12-11T12:04:56.368Z,0.90
2022-12-11T12:08:18.456Z,1.00
2022-12-11T12:11:43.532Z,1.10
2022-12-11T12:15:22.569Z,1.40
2022-12-11T12:18:50.349Z,1.40
2022-12-11T12:21:58.839Z,1.52
2022-12-11T12:25:22.004Z,1.50
2022-12-11T12:28:45.136Z,1.40
2022-12-11T12:32:10.913Z,1.32
2022-12-11T12:35:35.813Z,1.30
2022-12-11T12:39:01.798Z,1.30
2022-12-11T12:42:23.042Z,1.40
2022-12-11T12:45:41.330Z,2.04
2022-12-11T12:58:18.456Z,1.68
2022-12-11T13:06:02.440Z,1.96
2022-12-11T13:09:24.205Z,2.10
2022-12-11T13:12:46.615Z,1.80
2022-12-11T13:15:54.904Z,1.60
2022-12-11T13:19:03.739Z,1.80
2022-12-11T13:22:34.808Z,1.50
2022-12-11T13:25:56.262Z,1.60
2022-12-11T13:29:04.005Z,1.50
2022-12-11T13:32:33.109Z,1.40
2022-12-11T13:35:42.562Z,1.66
2022-12-11T13:38:56.291Z,1.60
2022-12-11T13:42:09.976Z,1.50
2022-12-11T13:45:30.011Z,1.40
2022-12-11T13:48:42.651Z,1.36
2022-12-11T13:51:59.018Z,1.38
2022-12-11T13:55:23.351Z,1.32
2022-12-11T13:58:35.341Z,1.70
2022-12-11T14:01:47.566Z,1.60
2022-12-11T14:05:00.524Z,1.50
2022-12-11T14:08:13.684Z,1.30
2022-12-11T14:11:31.821Z,1.10
2022-12-11T14:14:50.870Z,1.00
2022-12-11T14:18:01.057Z,0.90
2022-12-11T14:21:19.797Z,0.78
2022-12-11T14:24:28.277Z,0.62
2022-12-11T14:27:36.203Z,0.60
2022-12-11T14:30:53.021Z,0.50
2022-12-11T14:34:09.331Z,0.40
2022-12-11T14:37:22.499Z,0.40
2022-12-11T14:40:40.562Z,0.40
2022-12-11T14:43:52.977Z,0.30
2022-12-11T14:47:07.292Z,0.30
2022-12-11T14:50:23.726Z,0.20
2022-12-11T14:53:37.222Z,0.20
2022-12-11T14:56:48.087Z,0.10
2022-12-11T14:59:58.679Z,0.10
2022-12-11T15:03:21.230Z,0.10
2022-12-11T15:06:32.694Z,0.00
2022-12-11T15:09:47.709Z,0.00
2022-12-11T15:12:56.630Z,-0.02
2022-12-11T15:16:07.580Z,-0.10
2022-12-11T15:19:26.084Z,-0.10
2022-12-11T15:22:36.713Z,-0.10
2022-12-11T15:25:53.277Z,-0.10
2022-12-11T15:29:08.234Z,-0.10
2022-12-11T15:32:23.270Z,-0.14
2022-12-11T15:35:32.136Z,-0.20
2022-12-11T15:38:42.346Z,-0.20
2022-12-11T15:41:50.669Z,-0.20
2022-12-11T15:45:00.239Z,-0.22
2022-12-11T15:48:11.505Z,-0.30
2022-12-11T15:51:19.599Z,-0.30
2022-12-11T15:54:29.023Z,-0.30
2022-12-11T15:57:37.339Z,-0.30
2022-12-11T16:00:45.972Z,-0.30
2022-12-11T16:03:53.988Z,-0.30
2022-12-11T16:07:02.730Z,-0.30
2022-12-11T16:10:18.083Z,-0.32
2022-12-11T16:13:26.443Z,-0.38
2022-12-11T16:16:34.929Z,-0.40
2022-12-11T16:19:44.576Z,-0.40
2022-12-11T16:22:51.448Z,-0.40
2022-12-11T16:26:01.429Z,-0.40
2022-12-11T16:29:09.244Z,-0.40
2022-12-11T16:32:17.366Z,-0.40
2022-12-11T16:35:26.295Z,-0.40
2022-12-11T16:38:35.812Z,-0.40
2022-12-11T16:41:44.110Z,-0.48
2022-12-11T16:44:52.336Z,-0.48
2022-12-11T16:48:00.023Z,-0.46
2022-12-11T16:51:08.477Z,-0.48
2022-12-11T16:54:16.776Z,-0.46
2022-12-11T16:57:24.984Z,-0.50
2022-12-11T17:00:32.744Z,-0.50
2022-12-11T17:03:41.499Z,-0.50
2022-12-11T17:06:50.038Z,-0.50
2022-12-11T17:09:58.350Z,-0.50
2022-12-11T17:13:07.697Z,-0.50
2022-12-11T17:16:19.629Z,-0.50
2022-12-11T17:19:28.292Z,-0.54
2022-12-11T17:22:36.705Z,-0.60
2022-12-11T17:25:46.854Z,-0.60
2022-12-11T17:28:54.915Z,-0.60
2022-12-11T17:32:03.834Z,-0.60
2022-12-11T17:35:13.289Z,-0.60
2022-12-11T17:38:20.063Z,-0.60
2022-12-11T17:44:45.957Z,-0.60
2022-12-11T17:47:55.218Z,-0.60
2022-12-11T17:51:05.829Z,-0.60
2022-12-11T17:54:14.092Z,-0.60
2022-12-11T17:57:22.446Z,-0.60
2022-12-11T18:00:33.393Z,-0.68
2022-12-11T18:03:42.767Z,-0.70
2022-12-11T18:06:50.777Z,-0.70
2022-12-11T18:09:58.523Z,-0.70
2022-12-11T18:13:06.644Z,-0.70
2022-12-11T18:16:19.255Z,-0.70
2022-12-11T18:19:27.593Z,-0.70
2022-12-11T18:22:35.752Z,-0.70
2022-12-11T18:25:44.107Z,-0.70
2022-12-11T18:28:54.782Z,-0.72
2022-12-11T18:32:02.745Z,-0.76
2022-12-11T18:35:13.639Z,-0.80
2022-12-11T18:38:22.213Z,-0.80
2022-12-11T18:41:30.384Z,-0.80
2022-12-11T18:44:38.516Z,-0.80
2022-12-11T18:47:47.317Z,-0.80
2022-12-11T18:50:55.648Z,-0.80
2022-12-11T18:54:03.797Z,-0.80
2022-12-11T18:57:12.771Z,-0.82
2022-12-11T19:00:22.733Z,-0.84
2022-12-11T19:03:30.589Z,-0.90
2022-12-11T19:06:38.779Z,-0.90
2022-12-11T19:09:48.600Z,-0.90
2022-12-11T19:12:57.265Z,-0.90
2022-12-11T19:16:05.817Z,-0.90
2022-12-11T19:19:19.486Z,-0.90
2022-12-11T19:22:27.835Z,-0.96
2022-12-11T19:25:35.867Z,-1.00
2022-12-11T19:28:52.769Z,-1.00
2022-12-11T19:32:02.577Z,-1.00
2022-12-11T19:35:09.810Z,-1.00
2022-12-11T19:38:17.980Z,-1.00
2022-12-11T19:41:28.850Z,-1.00
2022-12-11T19:44:36.719Z,-1.04
2022-12-11T19:47:46.306Z,-1.10
2022-12-11T19:50:54.211Z,-1.10
2022-12-11T19:54:03.765Z,-1.10
2022-12-11T19:57:13.392Z,-1.10
2022-12-11T20:00:22.678Z,-1.14
2022-12-11T20:03:31.182Z,-1.18
2022-12-11T20:06:42.917Z,-1.20
2022-12-11T20:09:51.808Z,-1.20
2022-12-11T20:12:59.987Z,-1.20
2022-12-11T20:16:10.698Z,-1.28
2022-12-11T20:19:21.801Z,-1.30
2022-12-11T20:22:29.836Z,-1.30
2022-12-11T20:25:40.195Z,-1.30
2022-12-11T20:28:51.466Z,-1.40
2022-12-11T20:32:00.624Z,-1.40
2022-12-11T20:35:11.436Z,-1.44
2022-12-11T20:38:21.003Z,-1.50
2022-12-11T20:41:30.381Z,-1.50
2022-12-11T20:44:40.732Z,-1.50
2022-12-11T20:47:52.122Z,-1.50
2022-12-11T20:51:04.673Z,-1.60
2022-12-11T20:54:12.990Z,-1.60
2022-12-11T20:57:21.110Z,-1.70
2022-12-11T21:00:29.325Z,-1.70
2022-12-11T21:03:41.901Z,-1.70
2022-12-11T21:06:55.357Z,-1.72
2022-12-11T21:10:03.444Z,-1.80
2022-12-11T21:13:12.038Z,-1.80
2022-12-11T21:16:21.154Z,-1.80
2022-12-11T21:19:30.266Z,-1.90
2022-12-11T21:22:38.061Z,-1.90
2022-12-11T21:25:46.147Z,-1.90
2022-12-11T21:28:55.076Z,-1.90
2022-12-11T21:32:04.555Z,-1.90
2022-12-11T21:35:15.471Z,-1.90
2022-12-11T21:38:24.113Z,-1.90
2022-12-11T21:41:32.226Z,-1.90
2022-12-11T21:45:31.357Z,-1.90
2022-12-11T21:48:10.476Z,-1.92
2022-12-11T21:51:22.100Z,-2.00
2022-12-11T21:54:29.966Z,-2.00
2022-12-11T21:57:38.106Z,-2.00
2022-12-11T22:00:48.276Z,-2.00
2022-12-11T22:03:57.051Z,-2.00
2022-12-11T22:07:04.914Z,-2.00
2022-12-11T22:10:14.477Z,-2.06
2022-12-11T22:13:22.819Z,-2.10
2022-12-11T22:16:30.767Z,-2.10
2022-12-11T22:19:38.637Z,-2.10
2022-12-11T22:22:47.176Z,-2.18
2022-12-11T22:25:56.215Z,-2.20
2022-12-11T22:29:04.523Z,-2.26
2022-12-11T22:32:12.324Z,-2.30
2022-12-11T22:35:25.508Z,-2.30
2022-12-11T22:38:39.659Z,-2.30
2022-12-11T22:41:47.942Z,-2.30
2022-12-11T22:44:55.902Z,-2.30
2022-12-11T22:48:04.018Z,-2.40
2022-12-11T22:51:12.527Z,-2.40
2022-12-11T22:54:20.666Z,-2.50
2022-12-11T22:57:28.804Z,-2.50
2022-12-11T23:00:37.515Z,-2.50
2022-12-11T23:03:48.750Z,-2.60
2022-12-11T23:06:57.695Z,-2.60
2022-12-11T23:10:06.479Z,-2.64
2022-12-11T23:13:14.331Z,-2.70
2022-12-11T23:16:22.526Z,-2.70
2022-12-11T23:19:30.982Z,-2.70
2022-12-11T23:22:38.954Z,-2.70
2022-12-11T23:25:47.382Z,-2.70
2022-12-11T23:28:56.007Z,-2.70
2022-12-11T23:32:04.124Z,-2.70
2022-12-11T23:35:13.052Z,-2.72
2022-12-11T23:38:22.312Z,-2.72
2022-12-11T23:41:30.639Z,-2.76
2022-12-11T23:44:38.451Z,-2.80
2022-12-11T23:47:47.486Z,-2.80
2022-12-11T23:50:59.126Z,-2.80
2022-12-11T23:54:07.126Z,-2.80
2022-12-11T23:57:14.992Z,-2.78
